sensor_id;sensor_type;location;lat;lon;timestamp;P1;durP1;ratioP1;P2;durP2;ratioP2
4980;SDS011;2507;50.392;7.482;2023-07-02T00:00:50;3.13;;;2.93;;
4980;SDS011;2507;50.392;7.482;2023-07-02T00:03:16;2.97;;;2.77;;
4980;SDS011;2507;50.392;7.482;2023-07-02T00:05:41;2.37;;;2.27;;
4980;SDS011;2507;50.392;7.482;2023-07-02T00:08:07;4.87;;;2.97;;
4980;SDS011;2507;50.392;7.482;2023-07-02T00:10:32;2.40;;;2.30;;
4980;SDS011;2507;50.392;7.482;2023-07-02T00:12:57;3.00;;;2.80;;
4980;SDS011;2507;50.392;7.482;2023-07-02T00:15:23;2.47;;;2.27;;
4980;SDS011;2507;50.392;7.482;2023-07-02T00:17:48;2.50;;;2.40;;
4980;SDS011;2507;50.392;7.482;2023-07-02T00:20:13;2.80;;;2.60;;
4980;SDS011;2507;50.392;7.482;2023-07-02T00:22:42;2.60;;;2.50;;
4980;SDS011;2507;50.392;7.482;2023-07-02T00:25:09;2.80;;;2.70;;
4980;SDS011;2507;50.392;7.482;2023-07-02T00:27:35;2.47;;;2.37;;
4980;SDS011;2507;50.392;7.482;2023-07-02T00:30:00;2.50;;;2.40;;
4980;SDS011;2507;50.392;7.482;2023-07-02T00:32:25;2.60;;;2.40;;
4980;SDS011;2507;50.392;7.482;2023-07-02T00:34:51;2.60;;;2.50;;
4980;SDS011;2507;50.392;7.482;2023-07-02T00:37:16;2.93;;;2.73;;
4980;SDS011;2507;50.392;7.482;2023-07-02T00:39:42;2.27;;;2.17;;
4980;SDS011;2507;50.392;7.482;2023-07-02T00:42:07;2.47;;;2.37;;
4980;SDS011;2507;50.392;7.482;2023-07-02T00:44:33;3.17;;;2.60;;
4980;SDS011;2507;50.392;7.482;2023-07-02T00:47:05;2.43;;;2.33;;
4980;SDS011;2507;50.392;7.482;2023-07-02T00:49:34;2.80;;;2.60;;
4980;SDS011;2507;50.392;7.482;2023-07-02T00:51:59;2.43;;;2.23;;
4980;SDS011;2507;50.392;7.482;2023-07-02T00:54:27;4.53;;;2.23;;
4980;SDS011;2507;50.392;7.482;2023-07-02T00:56:53;2.90;;;2.60;;
4980;SDS011;2507;50.392;7.482;2023-07-02T00:59:18;2.80;;;2.60;;
4980;SDS011;2507;50.392;7.482;2023-07-02T01:01:44;3.67;;;3.00;;
4980;SDS011;2507;50.392;7.482;2023-07-02T01:04:16;2.70;;;2.50;;
4980;SDS011;2507;50.392;7.482;2023-07-02T01:06:42;4.03;;;3.47;;
4980;SDS011;2507;50.392;7.482;2023-07-02T01:09:08;6.63;;;2.90;;
4980;SDS011;2507;50.392;7.482;2023-07-02T01:11:40;4.47;;;2.70;;
4980;SDS011;2507;50.392;7.482;2023-07-02T01:14:12;9.60;;;3.20;;
4980;SDS011;2507;50.392;7.482;2023-07-02T01:16:38;6.20;;;3.70;;
4980;SDS011;2507;50.392;7.482;2023-07-02T01:19:11;4.00;;;2.20;;
4980;SDS011;2507;50.392;7.482;2023-07-02T01:21:38;7.43;;;2.67;;
4980;SDS011;2507;50.392;7.482;2023-07-02T01:24:04;9.90;;;3.37;;
4980;SDS011;2507;50.392;7.482;2023-07-02T01:26:30;3.90;;;2.73;;
4980;SDS011;2507;50.392;7.482;2023-07-02T01:29:14;6.27;;;3.00;;
4980;SDS011;2507;50.392;7.482;2023-07-02T01:31:43;8.00;;;3.17;;
4980;SDS011;2507;50.392;7.482;2023-07-02T01:34:09;4.50;;;4.10;;
4980;SDS011;2507;50.392;7.482;2023-07-02T01:36:35;7.80;;;4.03;;
4980;SDS011;2507;50.392;7.482;2023-07-02T01:39:00;7.33;;;4.00;;
4980;SDS011;2507;50.392;7.482;2023-07-02T01:41:26;6.67;;;4.00;;
4980;SDS011;2507;50.392;7.482;2023-07-02T01:43:51;7.90;;;3.80;;
4980;SDS011;2507;50.392;7.482;2023-07-02T01:46:16;5.70;;;3.60;;
4980;SDS011;2507;50.392;7.482;2023-07-02T01:48:41;10.10;;;4.30;;
4980;SDS011;2507;50.392;7.482;2023-07-02T01:51:07;10.10;;;4.00;;
4980;SDS011;2507;50.392;7.482;2023-07-02T01:53:32;11.07;;;4.10;;
4980;SDS011;2507;50.392;7.482;2023-07-02T01:55:57;8.23;;;4.20;;
4980;SDS011;2507;50.392;7.482;2023-07-02T01:58:23;16.27;;;4.40;;
4980;SDS011;2507;50.392;7.482;2023-07-02T02:00:48;3.87;;;3.50;;
4980;SDS011;2507;50.392;7.482;2023-07-02T02:03:14;6.07;;;4.43;;
4980;SDS011;2507;50.392;7.482;2023-07-02T02:05:39;5.00;;;4.50;;
4980;SDS011;2507;50.392;7.482;2023-07-02T02:08:05;6.53;;;4.90;;
4980;SDS011;2507;50.392;7.482;2023-07-02T02:10:30;9.33;;;5.30;;
4980;SDS011;2507;50.392;7.482;2023-07-02T02:12:55;8.60;;;4.93;;
4980;SDS011;2507;50.392;7.482;2023-07-02T02:15:21;9.27;;;6.10;;
4980;SDS011;2507;50.392;7.482;2023-07-02T02:17:46;7.20;;;5.20;;
4980;SDS011;2507;50.392;7.482;2023-07-02T02:20:12;7.43;;;4.93;;
4980;SDS011;2507;50.392;7.482;2023-07-02T02:22:37;7.67;;;5.40;;
4980;SDS011;2507;50.392;7.482;2023-07-02T02:25:03;7.43;;;5.27;;
4980;SDS011;2507;50.392;7.482;2023-07-02T02:27:28;8.73;;;5.10;;
4980;SDS011;2507;50.392;7.482;2023-07-02T02:29:54;9.03;;;4.90;;
4980;SDS011;2507;50.392;7.482;2023-07-02T02:32:19;6.13;;;4.90;;
4980;SDS011;2507;50.392;7.482;2023-07-02T02:34:46;10.70;;;5.70;;
4980;SDS011;2507;50.392;7.482;2023-07-02T02:37:11;8.87;;;4.93;;
4980;SDS011;2507;50.392;7.482;2023-07-02T02:39:37;7.87;;;5.87;;
4980;SDS011;2507;50.392;7.482;2023-07-02T02:42:02;14.67;;;6.63;;
4980;SDS011;2507;50.392;7.482;2023-07-02T02:44:28;7.50;;;5.47;;
4980;SDS011;2507;50.392;7.482;2023-07-02T02:46:54;7.60;;;6.10;;
4980;SDS011;2507;50.392;7.482;2023-07-02T02:49:19;7.37;;;6.20;;
4980;SDS011;2507;50.392;7.482;2023-07-02T02:51:44;12.57;;;7.07;;
4980;SDS011;2507;50.392;7.482;2023-07-02T02:54:10;12.97;;;7.30;;
4980;SDS011;2507;50.392;7.482;2023-07-02T02:56:35;16.10;;;7.87;;
4980;SDS011;2507;50.392;7.482;2023-07-02T02:59:00;9.43;;;7.27;;
4980;SDS011;2507;50.392;7.482;2023-07-02T03:01:26;14.17;;;8.60;;
4980;SDS011;2507;50.392;7.482;2023-07-02T03:03:57;12.80;;;8.40;;
4980;SDS011;2507;50.392;7.482;2023-07-02T03:06:23;11.73;;;8.20;;
4980;SDS011;2507;50.392;7.482;2023-07-02T03:08:49;11.63;;;8.47;;
4980;SDS011;2507;50.392;7.482;2023-07-02T03:11:14;12.77;;;8.27;;
4980;SDS011;2507;50.392;7.482;2023-07-02T03:13:39;14.70;;;8.20;;
4980;SDS011;2507;50.392;7.482;2023-07-02T03:16:05;12.47;;;8.20;;
4980;SDS011;2507;50.392;7.482;2023-07-02T03:18:30;10.40;;;8.20;;
4980;SDS011;2507;50.392;7.482;2023-07-02T03:20:56;14.03;;;8.00;;
4980;SDS011;2507;50.392;7.482;2023-07-02T03:23:21;14.07;;;8.70;;
4980;SDS011;2507;50.392;7.482;2023-07-02T03:25:46;21.03;;;9.37;;
4980;SDS011;2507;50.392;7.482;2023-07-02T03:28:12;12.93;;;7.90;;
4980;SDS011;2507;50.392;7.482;2023-07-02T03:30:37;12.47;;;8.90;;
4980;SDS011;2507;50.392;7.482;2023-07-02T03:33:03;12.53;;;7.60;;
4980;SDS011;2507;50.392;7.482;2023-07-02T03:35:28;8.90;;;7.90;;
4980;SDS011;2507;50.392;7.482;2023-07-02T03:37:53;15.73;;;9.00;;
4980;SDS011;2507;50.392;7.482;2023-07-02T03:40:19;13.77;;;8.83;;
4980;SDS011;2507;50.392;7.482;2023-07-02T03:42:44;14.50;;;8.80;;
4980;SDS011;2507;50.392;7.482;2023-07-02T03:45:09;13.87;;;8.57;;
4980;SDS011;2507;50.392;7.482;2023-07-02T03:47:35;10.93;;;9.00;;
4980;SDS011;2507;50.392;7.482;2023-07-02T03:50:00;14.20;;;9.10;;
4980;SDS011;2507;50.392;7.482;2023-07-02T03:52:26;16.93;;;8.30;;
4980;SDS011;2507;50.392;7.482;2023-07-02T03:54:51;13.33;;;7.83;;
4980;SDS011;2507;50.392;7.482;2023-07-02T03:57:16;14.83;;;8.90;;
4980;SDS011;2507;50.392;7.482;2023-07-02T03:59:42;18.43;;;8.33;;
4980;SDS011;2507;50.392;7.482;2023-07-02T04:02:07;13.40;;;7.70;;
4980;SDS011;2507;50.392;7.482;2023-07-02T04:04:32;13.37;;;8.80;;
4980;SDS011;2507;50.392;7.482;2023-07-02T04:06:58;16.63;;;9.90;;
4980;SDS011;2507;50.392;7.482;2023-07-02T04:09:23;16.63;;;9.80;;
4980;SDS011;2507;50.392;7.482;2023-07-02T04:11:48;16.70;;;9.47;;
4980;SDS011;2507;50.392;7.482;2023-07-02T04:14:13;16.00;;;10.37;;
4980;SDS011;2507;50.392;7.482;2023-07-02T04:16:39;17.80;;;10.47;;
4980;SDS011;2507;50.392;7.482;2023-07-02T04:19:04;17.30;;;10.57;;
4980;SDS011;2507;50.392;7.482;2023-07-02T04:21:29;18.40;;;10.50;;
4980;SDS011;2507;50.392;7.482;2023-07-02T04:23:55;15.60;;;10.17;;
4980;SDS011;2507;50.392;7.482;2023-07-02T04:26:20;16.83;;;10.63;;
4980;SDS011;2507;50.392;7.482;2023-07-02T04:28:46;16.33;;;10.50;;
4980;SDS011;2507;50.392;7.482;2023-07-02T04:31:11;19.50;;;11.30;;
4980;SDS011;2507;50.392;7.482;2023-07-02T04:33:36;17.07;;;11.30;;
4980;SDS011;2507;50.392;7.482;2023-07-02T04:36:04;19.53;;;10.60;;
4980;SDS011;2507;50.392;7.482;2023-07-02T04:38:30;23.77;;;11.33;;
4980;SDS011;2507;50.392;7.482;2023-07-02T04:40:55;23.50;;;12.40;;
4980;SDS011;2507;50.392;7.482;2023-07-02T04:43:26;14.83;;;10.70;;
4980;SDS011;2507;50.392;7.482;2023-07-02T04:45:54;16.57;;;10.90;;
4980;SDS011;2507;50.392;7.482;2023-07-02T04:48:20;16.23;;;10.10;;
4980;SDS011;2507;50.392;7.482;2023-07-02T04:50:45;18.07;;;10.77;;
4980;SDS011;2507;50.392;7.482;2023-07-02T04:53:10;15.40;;;10.10;;
4980;SDS011;2507;50.392;7.482;2023-07-02T04:55:35;21.63;;;11.40;;
4980;SDS011;2507;50.392;7.482;2023-07-02T04:58:01;20.20;;;12.93;;
4980;SDS011;2507;50.392;7.482;2023-07-02T05:00:26;17.90;;;11.00;;
4980;SDS011;2507;50.392;7.482;2023-07-02T05:02:51;14.53;;;10.50;;
4980;SDS011;2507;50.392;7.482;2023-07-02T05:05:17;19.87;;;11.60;;
4980;SDS011;2507;50.392;7.482;2023-07-02T05:07:43;16.70;;;12.00;;
4980;SDS011;2507;50.392;7.482;2023-07-02T05:10:08;19.40;;;12.40;;
4980;SDS011;2507;50.392;7.482;2023-07-02T05:12:34;23.27;;;12.63;;
4980;SDS011;2507;50.392;7.482;2023-07-02T05:14:59;16.63;;;11.57;;
4980;SDS011;2507;50.392;7.482;2023-07-02T05:17:24;18.37;;;12.17;;
4980;SDS011;2507;50.392;7.482;2023-07-02T05:19:50;17.50;;;13.00;;
4980;SDS011;2507;50.392;7.482;2023-07-02T05:22:15;18.70;;;11.70;;
4980;SDS011;2507;50.392;7.482;2023-07-02T05:24:40;20.40;;;13.00;;
4980;SDS011;2507;50.392;7.482;2023-07-02T05:27:06;21.93;;;13.57;;
4980;SDS011;2507;50.392;7.482;2023-07-02T05:29:31;20.77;;;13.90;;
4980;SDS011;2507;50.392;7.482;2023-07-02T05:31:56;25.53;;;13.37;;
4980;SDS011;2507;50.392;7.482;2023-07-02T05:34:22;16.63;;;12.60;;
4980;SDS011;2507;50.392;7.482;2023-07-02T05:36:47;19.67;;;12.60;;
4980;SDS011;2507;50.392;7.482;2023-07-02T05:39:12;21.97;;;13.27;;
4980;SDS011;2507;50.392;7.482;2023-07-02T05:41:38;23.63;;;13.97;;
4980;SDS011;2507;50.392;7.482;2023-07-02T05:44:03;21.47;;;13.70;;
4980;SDS011;2507;50.392;7.482;2023-07-02T05:46:28;19.03;;;12.97;;
4980;SDS011;2507;50.392;7.482;2023-07-02T05:48:54;20.87;;;12.93;;
4980;SDS011;2507;50.392;7.482;2023-07-02T05:51:22;23.83;;;13.20;;
4980;SDS011;2507;50.392;7.482;2023-07-02T05:53:48;27.93;;;13.20;;
4980;SDS011;2507;50.392;7.482;2023-07-02T05:56:14;23.70;;;13.37;;
4980;SDS011;2507;50.392;7.482;2023-07-02T05:58:39;19.07;;;12.57;;
4980;SDS011;2507;50.392;7.482;2023-07-02T06:01:04;17.07;;;11.90;;
4980;SDS011;2507;50.392;7.482;2023-07-02T06:03:30;16.33;;;11.57;;
4980;SDS011;2507;50.392;7.482;2023-07-02T06:05:56;12.93;;;11.23;;
4980;SDS011;2507;50.392;7.482;2023-07-02T06:08:21;16.23;;;12.17;;
4980;SDS011;2507;50.392;7.482;2023-07-02T06:10:47;17.33;;;11.97;;
4980;SDS011;2507;50.392;7.482;2023-07-02T06:13:12;17.90;;;13.07;;
4980;SDS011;2507;50.392;7.482;2023-07-02T06:15:38;19.70;;;13.07;;
4980;SDS011;2507;50.392;7.482;2023-07-02T06:18:04;16.87;;;11.73;;
4980;SDS011;2507;50.392;7.482;2023-07-02T06:20:29;14.57;;;12.13;;
4980;SDS011;2507;50.392;7.482;2023-07-02T06:22:54;13.70;;;11.73;;
4980;SDS011;2507;50.392;7.482;2023-07-02T06:25:20;15.03;;;11.70;;
4980;SDS011;2507;50.392;7.482;2023-07-02T06:27:46;14.53;;;11.80;;
4980;SDS011;2507;50.392;7.482;2023-07-02T06:30:11;17.03;;;12.53;;
4980;SDS011;2507;50.392;7.482;2023-07-02T06:32:37;15.73;;;12.80;;
4980;SDS011;2507;50.392;7.482;2023-07-02T06:35:02;14.00;;;11.43;;
4980;SDS011;2507;50.392;7.482;2023-07-02T06:37:28;15.97;;;12.10;;
4980;SDS011;2507;50.392;7.482;2023-07-02T06:39:53;15.20;;;12.00;;
4980;SDS011;2507;50.392;7.482;2023-07-02T06:42:19;17.50;;;13.83;;
4980;SDS011;2507;50.392;7.482;2023-07-02T06:44:44;16.43;;;12.83;;
4980;SDS011;2507;50.392;7.482;2023-07-02T06:47:09;17.10;;;14.20;;
4980;SDS011;2507;50.392;7.482;2023-07-02T06:49:35;14.60;;;13.00;;
4980;SDS011;2507;50.392;7.482;2023-07-02T06:52:01;19.07;;;13.70;;
4980;SDS011;2507;50.392;7.482;2023-07-02T06:54:26;20.97;;;13.70;;
4980;SDS011;2507;50.392;7.482;2023-07-02T06:56:52;16.70;;;12.63;;
4980;SDS011;2507;50.392;7.482;2023-07-02T06:59:23;19.50;;;12.70;;
4980;SDS011;2507;50.392;7.482;2023-07-02T07:01:49;24.53;;;14.57;;
4980;SDS011;2507;50.392;7.482;2023-07-02T07:04:15;21.17;;;14.37;;
4980;SDS011;2507;50.392;7.482;2023-07-02T07:06:40;20.40;;;14.50;;
4980;SDS011;2507;50.392;7.482;2023-07-02T07:09:07;19.60;;;14.67;;
4980;SDS011;2507;50.392;7.482;2023-07-02T07:11:32;23.60;;;13.90;;
4980;SDS011;2507;50.392;7.482;2023-07-02T07:13:57;19.10;;;13.17;;
4980;SDS011;2507;50.392;7.482;2023-07-02T07:16:23;16.00;;;12.70;;
4980;SDS011;2507;50.392;7.482;2023-07-02T07:18:48;21.73;;;14.37;;
4980;SDS011;2507;50.392;7.482;2023-07-02T07:21:13;21.70;;;13.40;;
4980;SDS011;2507;50.392;7.482;2023-07-02T07:23:39;16.23;;;12.83;;
4980;SDS011;2507;50.392;7.482;2023-07-02T07:26:05;22.70;;;14.10;;
4980;SDS011;2507;50.392;7.482;2023-07-02T07:28:30;19.80;;;12.90;;
4980;SDS011;2507;50.392;7.482;2023-07-02T07:30:55;18.70;;;13.40;;
4980;SDS011;2507;50.392;7.482;2023-07-02T07:33:21;18.93;;;12.03;;
4980;SDS011;2507;50.392;7.482;2023-07-02T07:35:46;16.90;;;13.27;;
4980;SDS011;2507;50.392;7.482;2023-07-02T07:38:13;15.50;;;12.30;;
4980;SDS011;2507;50.392;7.482;2023-07-02T07:40:39;17.27;;;12.40;;
4980;SDS011;2507;50.392;7.482;2023-07-02T07:43:04;16.83;;;12.40;;
4980;SDS011;2507;50.392;7.482;2023-07-02T07:45:30;18.03;;;12.90;;
4980;SDS011;2507;50.392;7.482;2023-07-02T07:47:55;22.17;;;13.97;;
4980;SDS011;2507;50.392;7.482;2023-07-02T07:50:21;19.03;;;11.77;;
4980;SDS011;2507;50.392;7.482;2023-07-02T07:52:47;20.50;;;13.53;;
4980;SDS011;2507;50.392;7.482;2023-07-02T07:55:12;16.70;;;13.30;;
4980;SDS011;2507;50.392;7.482;2023-07-02T07:57:38;22.53;;;12.47;;
4980;SDS011;2507;50.392;7.482;2023-07-02T08:00:04;16.77;;;11.83;;
4980;SDS011;2507;50.392;7.482;2023-07-02T08:02:34;16.03;;;12.30;;
4980;SDS011;2507;50.392;7.482;2023-07-02T08:05:00;18.90;;;13.10;;
4980;SDS011;2507;50.392;7.482;2023-07-02T08:07:25;15.73;;;13.00;;
4980;SDS011;2507;50.392;7.482;2023-07-02T08:09:51;16.33;;;14.40;;
4980;SDS011;2507;50.392;7.482;2023-07-02T08:12:16;16.10;;;13.60;;
4980;SDS011;2507;50.392;7.482;2023-07-02T08:14:41;18.40;;;13.07;;
4980;SDS011;2507;50.392;7.482;2023-07-02T08:17:06;22.17;;;14.30;;
4980;SDS011;2507;50.392;7.482;2023-07-02T08:19:32;17.50;;;13.97;;
4980;SDS011;2507;50.392;7.482;2023-07-02T08:21:57;16.47;;;11.53;;
4980;SDS011;2507;50.392;7.482;2023-07-02T08:24:22;18.90;;;12.50;;
4980;SDS011;2507;50.392;7.482;2023-07-02T08:26:47;14.30;;;11.70;;
4980;SDS011;2507;50.392;7.482;2023-07-02T08:29:14;17.40;;;12.30;;
4980;SDS011;2507;50.392;7.482;2023-07-02T08:31:40;20.50;;;12.83;;
4980;SDS011;2507;50.392;7.482;2023-07-02T08:34:05;17.27;;;12.70;;
4980;SDS011;2507;50.392;7.482;2023-07-02T08:36:30;18.10;;;12.70;;
4980;SDS011;2507;50.392;7.482;2023-07-02T08:38:56;17.70;;;12.20;;
4980;SDS011;2507;50.392;7.482;2023-07-02T08:41:21;16.93;;;11.43;;
4980;SDS011;2507;50.392;7.482;2023-07-02T08:43:48;18.03;;;12.87;;
4980;SDS011;2507;50.392;7.482;2023-07-02T08:46:14;15.30;;;11.30;;
4980;SDS011;2507;50.392;7.482;2023-07-02T08:48:40;18.30;;;12.27;;
4980;SDS011;2507;50.392;7.482;2023-07-02T08:51:06;18.20;;;12.60;;
4980;SDS011;2507;50.392;7.482;2023-07-02T08:53:31;16.67;;;12.80;;
4980;SDS011;2507;50.392;7.482;2023-07-02T08:55:58;16.57;;;12.37;;
4980;SDS011;2507;50.392;7.482;2023-07-02T08:58:28;14.63;;;11.20;;
4980;SDS011;2507;50.392;7.482;2023-07-02T09:01:09;12.97;;;11.10;;
4980;SDS011;2507;50.392;7.482;2023-07-02T09:03:39;16.80;;;11.20;;
4980;SDS011;2507;50.392;7.482;2023-07-02T09:06:06;18.43;;;12.00;;
4980;SDS011;2507;50.392;7.482;2023-07-02T09:08:33;14.97;;;11.50;;
4980;SDS011;2507;50.392;7.482;2023-07-02T09:16:21;15.23;;;10.33;;
4980;SDS011;2507;50.392;7.482;2023-07-02T09:19:06;15.40;;;9.87;;
4980;SDS011;2507;50.392;7.482;2023-07-02T09:21:43;15.03;;;10.63;;
4980;SDS011;2507;50.392;7.482;2023-07-02T09:26:42;15.90;;;11.47;;
4980;SDS011;2507;50.392;7.482;2023-07-02T09:29:08;17.23;;;11.47;;
4980;SDS011;2507;50.392;7.482;2023-07-02T09:31:42;16.47;;;11.60;;
4980;SDS011;2507;50.392;7.482;2023-07-02T09:34:08;16.77;;;11.03;;
4980;SDS011;2507;50.392;7.482;2023-07-02T09:36:34;15.37;;;11.77;;
4980;SDS011;2507;50.392;7.482;2023-07-02T09:39:02;18.87;;;11.17;;
4980;SDS011;2507;50.392;7.482;2023-07-02T09:41:29;16.87;;;12.83;;
4980;SDS011;2507;50.392;7.482;2023-07-02T09:43:54;22.70;;;11.13;;
4980;SDS011;2507;50.392;7.482;2023-07-02T09:46:20;15.10;;;10.60;;
4980;SDS011;2507;50.392;7.482;2023-07-02T09:48:45;19.60;;;11.57;;
4980;SDS011;2507;50.392;7.482;2023-07-02T09:51:11;15.13;;;11.60;;
4980;SDS011;2507;50.392;7.482;2023-07-02T09:53:37;14.83;;;10.20;;
4980;SDS011;2507;50.392;7.482;2023-07-02T09:56:02;18.37;;;11.03;;
4980;SDS011;2507;50.392;7.482;2023-07-02T09:58:27;17.10;;;11.30;;
4980;SDS011;2507;50.392;7.482;2023-07-02T10:00:53;21.87;;;11.80;;
4980;SDS011;2507;50.392;7.482;2023-07-02T10:03:27;19.70;;;12.50;;
4980;SDS011;2507;50.392;7.482;2023-07-02T10:06:01;21.97;;;13.47;;
4980;SDS011;2507;50.392;7.482;2023-07-02T10:08:27;17.70;;;12.47;;
4980;SDS011;2507;50.392;7.482;2023-07-02T10:10:55;20.57;;;13.10;;
4980;SDS011;2507;50.392;7.482;2023-07-02T10:13:31;18.80;;;13.07;;
4980;SDS011;2507;50.392;7.482;2023-07-02T10:16:06;20.97;;;12.60;;
4980;SDS011;2507;50.392;7.482;2023-07-02T10:18:31;17.50;;;12.17;;
4980;SDS011;2507;50.392;7.482;2023-07-02T10:20:57;18.63;;;12.83;;
4980;SDS011;2507;50.392;7.482;2023-07-02T10:23:34;22.30;;;14.07;;
4980;SDS011;2507;50.392;7.482;2023-07-02T10:26:17;22.30;;;13.07;;
4980;SDS011;2507;50.392;7.482;2023-07-02T10:28:55;19.57;;;13.20;;
4980;SDS011;2507;50.392;7.482;2023-07-02T10:31:24;16.03;;;11.40;;
4980;SDS011;2507;50.392;7.482;2023-07-02T10:33:49;16.80;;;12.30;;
4980;SDS011;2507;50.392;7.482;2023-07-02T10:36:19;17.00;;;12.20;;
4980;SDS011;2507;50.392;7.482;2023-07-02T10:38:45;17.90;;;11.37;;
4980;SDS011;2507;50.392;7.482;2023-07-02T10:41:12;15.30;;;10.97;;
4980;SDS011;2507;50.392;7.482;2023-07-02T10:43:37;15.50;;;11.57;;
4980;SDS011;2507;50.392;7.482;2023-07-02T10:46:03;18.90;;;12.17;;
4980;SDS011;2507;50.392;7.482;2023-07-02T10:48:30;19.50;;;12.70;;
4980;SDS011;2507;50.392;7.482;2023-07-02T10:50:55;17.90;;;11.03;;
4980;SDS011;2507;50.392;7.482;2023-07-02T10:53:21;17.93;;;12.93;;
4980;SDS011;2507;50.392;7.482;2023-07-02T10:55:53;18.20;;;11.97;;
4980;SDS011;2507;50.392;7.482;2023-07-02T10:58:20;14.33;;;11.20;;
4980;SDS011;2507;50.392;7.482;2023-07-02T11:00:46;18.73;;;11.93;;
4980;SDS011;2507;50.392;7.482;2023-07-02T11:03:30;16.53;;;12.00;;
4980;SDS011;2507;50.392;7.482;2023-07-02T11:05:56;15.23;;;11.43;;
4980;SDS011;2507;50.392;7.482;2023-07-02T11:08:21;15.93;;;11.37;;
4980;SDS011;2507;50.392;7.482;2023-07-02T11:10:48;13.00;;;11.20;;
4980;SDS011;2507;50.392;7.482;2023-07-02T11:13:14;15.93;;;10.50;;
4980;SDS011;2507;50.392;7.482;2023-07-02T11:15:42;12.80;;;9.30;;
4980;SDS011;2507;50.392;7.482;2023-07-02T11:18:12;11.77;;;9.87;;
4980;SDS011;2507;50.392;7.482;2023-07-02T11:20:38;14.33;;;10.20;;
4980;SDS011;2507;50.392;7.482;2023-07-02T11:23:16;13.47;;;9.40;;
4980;SDS011;2507;50.392;7.482;2023-07-02T11:25:58;10.40;;;8.80;;
4980;SDS011;2507;50.392;7.482;2023-07-02T11:28:24;18.30;;;13.30;;
4980;SDS011;2507;50.392;7.482;2023-07-02T11:30:50;17.87;;;13.63;;
4980;SDS011;2507;50.392;7.482;2023-07-02T11:33:16;21.27;;;15.27;;
4980;SDS011;2507;50.392;7.482;2023-07-02T11:35:42;20.20;;;13.77;;
4980;SDS011;2507;50.392;7.482;2023-07-02T11:38:08;20.33;;;14.20;;
4980;SDS011;2507;50.392;7.482;2023-07-02T11:40:35;19.60;;;14.07;;
4980;SDS011;2507;50.392;7.482;2023-07-02T11:43:01;18.87;;;13.50;;
4980;SDS011;2507;50.392;7.482;2023-07-02T11:45:27;18.73;;;13.67;;
4980;SDS011;2507;50.392;7.482;2023-07-02T11:47:53;19.73;;;13.80;;
4980;SDS011;2507;50.392;7.482;2023-07-02T11:50:19;25.47;;;13.87;;
4980;SDS011;2507;50.392;7.482;2023-07-02T11:52:45;17.83;;;13.17;;
4980;SDS011;2507;50.392;7.482;2023-07-02T11:55:11;20.53;;;13.47;;
4980;SDS011;2507;50.392;7.482;2023-07-02T11:57:36;16.47;;;12.13;;
4980;SDS011;2507;50.392;7.482;2023-07-02T12:00:02;16.17;;;12.27;;
4980;SDS011;2507;50.392;7.482;2023-07-02T12:02:28;19.50;;;11.70;;
4980;SDS011;2507;50.392;7.482;2023-07-02T12:04:53;21.43;;;12.73;;
4980;SDS011;2507;50.392;7.482;2023-07-02T12:07:19;17.93;;;13.17;;
4980;SDS011;2507;50.392;7.482;2023-07-02T12:09:44;18.63;;;13.27;;
4980;SDS011;2507;50.392;7.482;2023-07-02T12:12:10;17.77;;;12.50;;
4980;SDS011;2507;50.392;7.482;2023-07-02T12:14:36;21.77;;;14.50;;
4980;SDS011;2507;50.392;7.482;2023-07-02T12:17:02;19.33;;;13.20;;
4980;SDS011;2507;50.392;7.482;2023-07-02T12:19:28;17.47;;;12.13;;
4980;SDS011;2507;50.392;7.482;2023-07-02T12:21:53;19.97;;;13.57;;
4980;SDS011;2507;50.392;7.482;2023-07-02T12:24:19;17.20;;;12.47;;
4980;SDS011;2507;50.392;7.482;2023-07-02T12:26:45;22.33;;;15.40;;
4980;SDS011;2507;50.392;7.482;2023-07-02T12:29:10;24.30;;;15.77;;
4980;SDS011;2507;50.392;7.482;2023-07-02T12:31:36;20.00;;;15.17;;
4980;SDS011;2507;50.392;7.482;2023-07-02T12:34:04;23.40;;;14.90;;
4980;SDS011;2507;50.392;7.482;2023-07-02T12:36:30;23.77;;;15.23;;
4980;SDS011;2507;50.392;7.482;2023-07-02T12:38:55;23.93;;;14.77;;
4980;SDS011;2507;50.392;7.482;2023-07-02T12:41:21;22.80;;;14.00;;
4980;SDS011;2507;50.392;7.482;2023-07-02T12:43:46;18.47;;;13.50;;
4980;SDS011;2507;50.392;7.482;2023-07-02T12:46:12;17.30;;;12.53;;
4980;SDS011;2507;50.392;7.482;2023-07-02T12:48:37;17.33;;;13.77;;
4980;SDS011;2507;50.392;7.482;2023-07-02T12:51:03;24.60;;;15.53;;
4980;SDS011;2507;50.392;7.482;2023-07-02T12:53:28;18.60;;;11.60;;
4980;SDS011;2507;50.392;7.482;2023-07-02T12:55:53;14.70;;;10.87;;
4980;SDS011;2507;50.392;7.482;2023-07-02T12:58:22;15.53;;;11.00;;
4980;SDS011;2507;50.392;7.482;2023-07-02T13:00:47;19.80;;;10.93;;
4980;SDS011;2507;50.392;7.482;2023-07-02T13:03:13;17.93;;;12.00;;
4980;SDS011;2507;50.392;7.482;2023-07-02T13:05:39;16.83;;;10.50;;
4980;SDS011;2507;50.392;7.482;2023-07-02T13:08:05;15.53;;;11.13;;
4980;SDS011;2507;50.392;7.482;2023-07-02T13:10:32;15.27;;;11.10;;
4980;SDS011;2507;50.392;7.482;2023-07-02T13:12:58;18.33;;;10.53;;
4980;SDS011;2507;50.392;7.482;2023-07-02T13:15:24;16.27;;;11.10;;
4980;SDS011;2507;50.392;7.482;2023-07-02T13:17:49;17.27;;;11.03;;
4980;SDS011;2507;50.392;7.482;2023-07-02T13:20:16;19.17;;;11.77;;
4980;SDS011;2507;50.392;7.482;2023-07-02T13:22:41;15.10;;;10.80;;
4980;SDS011;2507;50.392;7.482;2023-07-02T13:25:07;17.90;;;11.40;;
4980;SDS011;2507;50.392;7.482;2023-07-02T13:27:33;13.83;;;10.83;;
4980;SDS011;2507;50.392;7.482;2023-07-02T13:29:59;15.20;;;11.00;;
4980;SDS011;2507;50.392;7.482;2023-07-02T13:32:24;17.37;;;11.30;;
4980;SDS011;2507;50.392;7.482;2023-07-02T13:34:50;16.83;;;10.80;;
4980;SDS011;2507;50.392;7.482;2023-07-02T13:37:16;17.67;;;10.80;;
4980;SDS011;2507;50.392;7.482;2023-07-02T13:39:45;14.00;;;10.70;;
4980;SDS011;2507;50.392;7.482;2023-07-02T13:42:14;15.07;;;10.53;;
4980;SDS011;2507;50.392;7.482;2023-07-02T13:44:40;19.40;;;11.37;;
4980;SDS011;2507;50.392;7.482;2023-07-02T13:47:06;14.60;;;10.07;;
4980;SDS011;2507;50.392;7.482;2023-07-02T13:49:32;19.77;;;11.83;;
4980;SDS011;2507;50.392;7.482;2023-07-02T13:51:58;14.40;;;11.20;;
4980;SDS011;2507;50.392;7.482;2023-07-02T13:54:24;14.60;;;11.10;;
4980;SDS011;2507;50.392;7.482;2023-07-02T13:56:49;18.13;;;11.77;;
4980;SDS011;2507;50.392;7.482;2023-07-02T13:59:15;15.50;;;11.53;;
4980;SDS011;2507;50.392;7.482;2023-07-02T14:01:42;17.50;;;10.93;;
4980;SDS011;2507;50.392;7.482;2023-07-02T14:04:09;18.47;;;12.90;;
4980;SDS011;2507;50.392;7.482;2023-07-02T14:06:35;16.60;;;11.90;;
4980;SDS011;2507;50.392;7.482;2023-07-02T14:09:01;18.57;;;12.37;;
4980;SDS011;2507;50.392;7.482;2023-07-02T14:11:27;18.27;;;11.70;;
4980;SDS011;2507;50.392;7.482;2023-07-02T14:13:53;15.07;;;10.60;;
4980;SDS011;2507;50.392;7.482;2023-07-02T14:16:19;16.63;;;11.93;;
4980;SDS011;2507;50.392;7.482;2023-07-02T14:18:45;15.57;;;10.97;;
4980;SDS011;2507;50.392;7.482;2023-07-02T14:21:10;17.33;;;10.60;;
4980;SDS011;2507;50.392;7.482;2023-07-02T14:23:36;17.17;;;10.70;;
4980;SDS011;2507;50.392;7.482;2023-07-02T14:26:02;20.33;;;11.63;;
4980;SDS011;2507;50.392;7.482;2023-07-02T14:28:27;16.67;;;10.63;;
4980;SDS011;2507;50.392;7.482;2023-07-02T14:31:03;17.20;;;10.30;;
4980;SDS011;2507;50.392;7.482;2023-07-02T14:33:30;15.60;;;10.50;;
4980;SDS011;2507;50.392;7.482;2023-07-02T14:35:58;21.10;;;14.80;;
4980;SDS011;2507;50.392;7.482;2023-07-02T14:38:24;23.97;;;14.30;;
4980;SDS011;2507;50.392;7.482;2023-07-02T14:40:50;18.97;;;13.43;;
4980;SDS011;2507;50.392;7.482;2023-07-02T14:43:17;19.70;;;13.57;;
4980;SDS011;2507;50.392;7.482;2023-07-02T14:45:45;18.57;;;12.83;;
4980;SDS011;2507;50.392;7.482;2023-07-02T14:48:12;22.53;;;15.70;;
4980;SDS011;2507;50.392;7.482;2023-07-02T14:50:48;27.23;;;14.70;;
4980;SDS011;2507;50.392;7.482;2023-07-02T14:53:16;21.60;;;14.20;;
4980;SDS011;2507;50.392;7.482;2023-07-02T14:55:43;18.33;;;12.07;;
4980;SDS011;2507;50.392;7.482;2023-07-02T14:58:09;19.60;;;12.43;;